Time;durP1;ratioP1;P1;durP2;ratioP2;P2;SDS_P1;SDS_P2;PMS_P1;PMS_P2;Temp;Humidity;BMP_temperature;BMP_pressure;BME280_temperature;BME280_humidity;BME280_pressure;Samples;Min_cycle;Max_cycle;Signal;HPM_P1;HPM_P2
2023/08/27 00:01:11;;;;;;;7.63;5.72;;;16.70;77.80;;;;;;7393586;19;20031;-71
2023/08/27 00:03:41;;;;;;;10.68;5.88;;;16.90;82.00;;;;;;7392578;19;20534;-70
2023/08/27 00:06:12;;;;;;;11.40;5.57;;;16.90;76.50;;;;;;7393995;19;20014;-71
2023/08/27 00:08:42;;;;;;;9.68;5.57;;;16.90;76.30;;;;;;7394543;19;20010;-70
2023/08/27 00:11:15;;;;;;;9.30;5.50;;;16.90;74.40;;;;;;7393429;19;20018;-70
2023/08/27 00:13:45;;;;;;;7.50;5.55;;;16.80;77.30;;;;;;7395636;19;20010;-70
2023/08/27 00:16:15;;;;;;;8.73;5.60;;;16.90;87.10;;;;;;7395124;19;20037;-71
2023/08/27 00:18:46;;;;;;;7.38;4.97;;;16.80;84.20;;;;;;7393653;19;20021;-70
2023/08/27 00:21:18;;;;;;;7.20;5.43;;;16.70;82.90;;;;;;7391617;19;20111;-70
2023/08/27 00:23:53;;;;;;;7.65;5.47;;;16.60;86.40;;;;;;7395367;19;20018;-69
2023/08/27 00:26:26;;;;;;;9.32;5.97;;;16.60;90.10;;;;;;7394294;19;20044;-70
2023/08/27 00:28:58;;;;;;;10.30;6.07;;;16.70;90.70;;;;;;7393532;19;20026;-70
2023/08/27 00:31:34;;;;;;;8.23;5.85;;;16.70;90.10;;;;;;7392922;19;20010;-69
2023/08/27 00:34:07;;;;;;;6.20;5.28;;;16.60;93.30;;;;;;7391884;19;20021;-71
2023/08/27 00:36:39;;;;;;;8.73;5.95;;;16.50;96.40;;;;;;7394720;19;20011;-70
2023/08/27 00:39:10;;;;;;;7.90;6.57;;;16.40;99.90;;;;;;7392721;19;20007;-71
2023/08/27 00:41:49;;;;;;;9.65;6.10;;;16.40;99.90;;;;;;7390856;19;20023;-68
2023/08/27 00:44:20;;;;;;;9.27;5.55;;;16.40;99.90;;;;;;7393993;19;20050;-71
2023/08/27 00:46:50;;;;;;;6.90;5.80;;;16.40;99.90;;;;;;7395393;19;20034;-70
2023/08/27 00:49:21;;;;;;;7.60;5.75;;;16.40;99.90;;;;;;7389467;19;20030;-69
2023/08/27 00:51:52;;;;;;;7.63;5.72;;;16.40;99.90;;;;;;7390613;19;20075;-71
2023/08/27 00:54:22;;;;;;;7.57;5.97;;;16.30;99.90;;;;;;7388204;19;20028;-70
2023/08/27 00:56:56;;;;;;;9.70;5.93;;;16.30;99.90;;;;;;7391000;19;20022;-70
2023/08/27 00:59:26;;;;;;;9.80;6.60;;;16.40;99.90;;;;;;7389404;19;20015;-69
2023/08/27 01:01:57;;;;;;;8.50;5.50;;;16.40;99.90;;;;;;7391386;19;20038;-70
2023/08/27 01:04:27;;;;;;;6.70;5.55;;;16.40;99.90;;;;;;7389382;19;20078;-71
2023/08/27 01:06:58;;;;;;;7.00;5.63;;;16.40;99.90;;;;;;7390040;19;20018;-70
2023/08/27 01:09:38;;;;;;;10.27;6.25;;;16.50;99.90;;;;;;7389303;19;20387;-70
2023/08/27 01:12:23;;;;;;;8.02;5.47;;;16.50;99.90;;;;;;7393652;19;20018;-70
2023/08/27 01:14:55;;;;;;;11.20;5.85;;;16.50;99.90;;;;;;7387268;19;20351;-70
2023/08/27 01:17:25;;;;;;;7.22;5.90;;;16.60;99.90;;;;;;7389554;19;20032;-70
2023/08/27 01:19:56;;;;;;;10.82;6.25;;;16.70;99.90;;;;;;7386691;19;20025;-70
2023/08/27 01:22:30;;;;;;;7.82;6.25;;;16.60;99.90;;;;;;7391862;19;20032;-70
2023/08/27 01:25:00;;;;;;;9.05;6.57;;;16.70;99.90;;;;;;7387138;19;20073;-71
2023/08/27 01:27:34;;;;;;;7.88;6.38;;;16.70;99.90;;;;;;7383619;19;20046;-70
2023/08/27 01:30:14;;;;;;;7.88;6.50;;;16.70;99.90;;;;;;7389108;19;20023;-71
2023/08/27 01:32:51;;;;;;;8.18;6.63;;;16.70;99.90;;;;;;7391559;19;20429;-71
2023/08/27 01:35:22;;;;;;;10.15;6.75;;;16.70;99.70;;;;;;7390163;19;20080;-71
2023/08/27 01:37:55;;;;;;;7.90;6.25;;;16.70;98.60;;;;;;7389332;19;20451;-71
2023/08/27 01:40:25;;;;;;;8.88;6.30;;;16.50;99.50;;;;;;7387099;19;20034;-70
2023/08/27 01:42:57;;;;;;;11.13;6.18;;;16.50;99.90;;;;;;7392432;19;20475;-70
2023/08/27 01:45:27;;;;;;;8.63;6.32;;;16.50;99.90;;;;;;7388141;19;20021;-70
2023/08/27 01:47:58;;;;;;;7.43;5.63;;;16.50;99.90;;;;;;7387820;19;20057;-69
2023/08/27 01:50:32;;;;;;;10.43;6.53;;;16.40;99.90;;;;;;7387700;19;20031;-70
2023/08/27 01:53:05;;;;;;;9.60;6.15;;;16.40;99.90;;;;;;7386614;19;20588;-71
2023/08/27 01:55:35;;;;;;;16.42;6.63;;;16.40;99.90;;;;;;7387405;19;20015;-71
2023/08/27 01:58:08;;;;;;;8.63;6.75;;;16.40;99.90;;;;;;7386112;19;20018;-71
2023/08/27 02:00:38;;;;;;;8.43;7.03;;;16.40;99.90;;;;;;7385850;19;20029;-71
2023/08/27 02:03:09;;;;;;;13.07;7.70;;;16.40;99.90;;;;;;7386976;19;20044;-71
2023/08/27 02:05:39;;;;;;;13.68;7.53;;;16.40;99.90;;;;;;7388126;19;20029;-70
2023/08/27 02:08:15;;;;;;;10.43;7.28;;;16.40;99.90;;;;;;7385849;19;20544;-70
2023/08/27 02:10:45;;;;;;;9.07;7.45;;;16.50;99.90;;;;;;7386207;19;20041;-70
2023/08/27 02:13:15;;;;;;;13.50;7.18;;;16.70;99.90;;;;;;7386597;19;20074;-70
2023/08/27 02:15:45;;;;;;;10.75;6.78;;;16.70;99.90;;;;;;7385630;19;20006;-69
2023/08/27 02:18:15;;;;;;;10.02;6.88;;;16.70;99.90;;;;;;7385790;19;20078;-69
2023/08/27 02:20:47;;;;;;;13.18;7.82;;;16.80;99.90;;;;;;7386601;19;20089;-70
2023/08/27 02:23:20;;;;;;;8.10;6.30;;;16.70;99.90;;;;;;7387942;19;20011;-70
2023/08/27 02:25:50;;;;;;;10.40;6.60;;;16.70;99.90;;;;;;7388065;19;20015;-70
2023/08/27 02:28:20;;;;;;;9.98;6.45;;;16.70;99.90;;;;;;7387335;19;20052;-71
2023/08/27 02:30:55;;;;;;;7.82;5.75;;;16.60;99.90;;;;;;7386543;19;20019;-70
2023/08/27 02:33:26;;;;;;;9.48;7.03;;;16.50;99.90;;;;;;7386468;19;20045;-70
2023/08/27 02:35:56;;;;;;;10.77;7.07;;;16.50;99.90;;;;;;7387809;19;20010;-69
2023/08/27 02:38:32;;;;;;;14.95;7.65;;;16.50;99.90;;;;;;7385588;19;20074;-70
2023/08/27 02:41:02;;;;;;;14.63;7.65;;;16.40;99.90;;;;;;7386108;19;20015;-70
2023/08/27 02:43:34;;;;;;;11.10;7.28;;;16.60;99.90;;;;;;7387335;19;20018;-71
2023/08/27 02:46:04;;;;;;;10.02;6.65;;;16.60;99.90;;;;;;7387479;19;20093;-71
2023/08/27 02:48:35;;;;;;;15.00;7.55;;;16.70;99.90;;;;;;7385753;19;20018;-70
2023/08/27 02:51:05;;;;;;;9.57;6.63;;;16.70;99.90;;;;;;7384291;19;20014;-70
2023/08/27 02:53:38;;;;;;;13.07;6.85;;;16.70;99.90;;;;;;7386974;19;20014;-69
2023/08/27 02:56:08;;;;;;;9.15;6.85;;;16.80;99.90;;;;;;7387223;19;20497;-70
2023/08/27 02:58:40;;;;;;;11.20;6.78;;;16.70;99.90;;;;;;7388689;19;20026;-70
2023/08/27 03:01:10;;;;;;;7.50;6.43;;;16.80;99.90;;;;;;7392947;19;20010;-71
2023/08/27 03:03:40;;;;;;;11.48;7.18;;;16.90;99.90;;;;;;7394187;19;20019;-69
2023/08/27 03:06:10;;;;;;;9.07;7.57;;;16.90;99.90;;;;;;7394005;19;20482;-69
2023/08/27 03:08:43;;;;;;;10.30;7.47;;;16.80;99.90;;;;;;7393299;19;20014;-70
2023/08/27 03:11:13;;;;;;;12.02;7.85;;;16.80;99.90;;;;;;7391166;19;20037;-70
2023/08/27 03:13:43;;;;;;;12.02;8.10;;;16.80;99.90;;;;;;7393904;19;20006;-68
2023/08/27 03:16:13;;;;;;;11.65;7.75;;;16.80;99.90;;;;;;7392542;19;20085;-69
2023/08/27 03:18:43;;;;;;;13.25;8.45;;;16.60;99.90;;;;;;7393131;19;20014;-69
2023/08/27 03:21:15;;;;;;;10.15;8.02;;;16.60;99.90;;;;;;7390892;19;20026;-69
2023/08/27 03:23:48;;;;;;;12.98;8.60;;;16.70;99.90;;;;;;7393934;19;20383;-69
2023/08/27 03:26:18;;;;;;;13.70;9.95;;;16.60;99.90;;;;;;7392220;19;20038;-69
2023/08/27 03:28:48;;;;;;;14.23;9.63;;;16.60;99.90;;;;;;7393625;19;20031;-69
2023/08/27 03:31:18;;;;;;;13.05;9.93;;;16.60;99.90;;;;;;7392018;19;20006;-70
2023/08/27 03:33:48;;;;;;;17.25;10.88;;;16.50;99.90;;;;;;7393606;19;20509;-70
2023/08/27 03:36:19;;;;;;;16.50;11.20;;;16.50;99.90;;;;;;7394281;19;20018;-70
2023/08/27 03:38:52;;;;;;;15.70;11.13;;;16.50;99.90;;;;;;7393729;19;20010;-70
2023/08/27 03:41:22;;;;;;;13.05;10.75;;;16.50;99.90;;;;;;7391994;19;20014;-69
2023/08/27 03:43:52;;;;;;;12.90;11.55;;;16.40;99.90;;;;;;7391850;19;20014;-68
2023/08/27 03:46:22;;;;;;;17.33;11.10;;;16.40;99.90;;;;;;7395903;19;20006;-70
2023/08/27 03:48:54;;;;;;;14.57;11.32;;;16.30;99.90;;;;;;7394283;19;20010;-69
2023/08/27 03:51:24;;;;;;;16.70;11.98;;;16.40;99.90;;;;;;7391906;19;20014;-70
2023/08/27 03:53:57;;;;;;;14.75;12.40;;;16.50;99.90;;;;;;7393020;19;20014;-69
2023/08/27 03:56:29;;;;;;;19.15;13.07;;;16.50;99.90;;;;;;7393317;19;20014;-70
2023/08/27 03:59:00;;;;;;;16.47;12.73;;;16.60;99.90;;;;;;7393532;19;20083;-71
2023/08/27 04:01:33;;;;;;;17.33;12.95;;;16.50;99.90;;;;;;7391443;19;20030;-70
2023/08/27 04:04:03;;;;;;;16.88;12.93;;;16.50;99.90;;;;;;7390772;19;20018;-69
2023/08/27 04:06:35;;;;;;;20.25;13.05;;;16.50;99.90;;;;;;7392649;19;20027;-70
2023/08/27 04:09:15;;;;;;;18.65;13.75;;;16.60;99.90;;;;;;7390810;19;20770;-70
2023/08/27 04:11:45;;;;;;;19.52;13.73;;;16.60;99.90;;;;;;7391424;19;20015;-69
2023/08/27 04:14:15;;;;;;;18.10;13.52;;;16.50;99.90;;;;;;7392428;19;20031;-71
2023/08/27 04:16:45;;;;;;;15.65;13.00;;;16.60;99.90;;;;;;7392743;19;20385;-70
2023/08/27 04:19:22;;;;;;;14.80;13.05;;;16.50;99.90;;;;;;7390829;19;20019;-70
2023/08/27 04:21:56;;;;;;;23.63;14.13;;;16.60;99.90;;;;;;7389245;19;20026;-71
2023/08/27 04:24:29;;;;;;;23.70;13.75;;;16.60;99.90;;;;;;7391937;19;20499;-71
2023/08/27 04:27:02;;;;;;;20.27;14.68;;;16.60;99.90;;;;;;7390463;19;20029;-69
2023/08/27 04:29:32;;;;;;;19.33;13.75;;;16.60;99.90;;;;;;7391217;19;20018;-69
2023/08/27 04:32:02;;;;;;;23.02;14.07;;;16.60;99.90;;;;;;7390843;19;20002;-69
2023/08/27 04:34:32;;;;;;;21.45;14.07;;;16.60;99.90;;;;;;7391509;19;20081;-70
2023/08/27 04:37:07;;;;;;;19.88;13.77;;;16.50;99.90;;;;;;7391985;19;20014;-71
2023/08/27 04:39:42;;;;;;;20.42;14.35;;;16.60;99.90;;;;;;7389863;19;20025;-69
2023/08/27 04:42:11;;;;;;;;;;;16.60;99.90;;;;;;7392969;19;20038;-70
2023/08/27 04:44:42;;;;;;;22.05;14.70;;;16.60;99.90;;;;;;7388641;19;19939;-70
2023/08/27 04:47:12;;;;;;;18.75;14.80;;;16.60;99.90;;;;;;7395052;19;20011;-69
2023/08/27 04:49:45;;;;;;;25.23;14.70;;;16.60;99.90;;;;;;7391149;19;20081;-70
2023/08/27 04:52:16;;;;;;;23.35;14.60;;;16.60;99.90;;;;;;7393198;19;20016;-69
2023/08/27 04:55:05;;;;;;;22.45;15.20;;;16.50;99.90;;;;;;7389573;19;20015;-70
2023/08/27 04:57:36;;;;;;;22.10;15.25;;;16.50;99.90;;;;;;7391465;19;20371;-69
2023/08/27 05:00:13;;;;;;;;;;;16.70;99.90;;;;;;7388833;19;20421;-71
2023/08/27 05:02:51;;;;;;;;;;;16.80;99.90;;;;;;7390150;19;19942;-70
2023/08/27 05:05:30;;;;;;;22.30;16.23;;;16.80;99.90;;;;;;7390601;19;19982;-71
2023/08/27 05:08:00;;;;;;;20.63;15.48;;;16.80;99.90;;;;;;7392644;19;20010;-71
2023/08/27 05:10:36;;;;;;;19.83;15.38;;;16.80;99.90;;;;;;7392917;19;20024;-71
2023/08/27 05:13:12;;;;;;;21.65;15.20;;;16.80;99.90;;;;;;7393291;19;20038;-71
2023/08/27 05:15:43;;;;;;;18.73;15.23;;;16.90;99.90;;;;;;7394101;19;20073;-70
2023/08/27 05:18:20;;;;;;;19.35;14.93;;;16.80;99.90;;;;;;7390606;19;20761;-71
2023/08/27 05:20:50;;;;;;;19.50;15.02;;;16.80;99.90;;;;;;7385462;19;20485;-70
2023/08/27 05:23:24;;;;;;;20.58;16.08;;;16.90;99.90;;;;;;7392350;19;20018;-70
2023/08/27 05:26:14;;;;;;;22.08;14.77;;;16.80;99.90;;;;;;7390337;19;20048;-70
2023/08/27 05:28:46;;;;;;;22.55;15.88;;;16.80;99.90;;;;;;7388718;19;20026;-70
2023/08/27 05:31:16;;;;;;;25.98;15.48;;;16.90;99.90;;;;;;7387106;19;20032;-71
2023/08/27 05:33:49;;;;;;;18.95;15.10;;;16.80;99.90;;;;;;7387769;19;20014;-71
2023/08/27 05:36:22;;;;;;;21.58;15.13;;;16.90;99.90;;;;;;7390198;19;20040;-71
2023/08/27 05:39:01;;;;;;;19.88;15.85;;;16.80;99.90;;;;;;7388412;19;20018;-71
2023/08/27 05:41:36;;;;;;;21.60;15.30;;;16.90;99.90;;;;;;7387650;19;20355;-70
2023/08/27 05:44:09;;;;;;;20.65;15.52;;;16.80;99.90;;;;;;7389038;19;20122;-70
2023/08/27 05:46:42;;;;;;;21.67;14.68;;;16.90;99.90;;;;;;7392632;19;20040;-70
2023/08/27 05:49:13;;;;;;;21.30;14.88;;;16.90;99.90;;;;;;7389485;19;20066;-70
2023/08/27 05:51:51;;;;;;;20.67;14.77;;;16.90;99.90;;;;;;7386323;19;20021;-71
2023/08/27 05:54:23;;;;;;;18.38;14.73;;;16.90;99.90;;;;;;7388557;19;20011;-71
2023/08/27 05:57:01;;;;;;;19.83;14.30;;;16.90;99.90;;;;;;7389109;19;20015;-70
2023/08/27 05:59:32;;;;;;;17.33;12.80;;;16.80;99.90;;;;;;7386908;19;20078;-70
2023/08/27 06:02:07;;;;;;;16.65;13.30;;;16.90;99.90;;;;;;7388433;19;20034;-69
2023/08/27 06:04:41;;;;;;;13.75;11.73;;;16.80;99.90;;;;;;7386584;19;20014;-71
2023/08/27 06:07:24;;;;;;;15.65;11.35;;;16.80;99.90;;;;;;7387224;19;20014;-70
2023/08/27 06:09:57;;;;;;;16.58;11.95;;;16.70;99.90;;;;;;7386269;19;20474;-71
2023/08/27 06:12:40;;;;;;;13.48;10.20;;;16.70;99.90;;;;;;7388865;19;20011;-71
2023/08/27 06:15:17;;;;;;;14.02;9.85;;;16.70;99.90;;;;;;7385670;19;20029;-70
2023/08/27 06:17:47;;;;;;;12.57;9.90;;;16.70;99.90;;;;;;7388564;19;20028;-69
2023/08/27 06:20:17;;;;;;;13.82;9.80;;;16.70;99.90;;;;;;7391684;19;20119;-67
2023/08/27 06:22:47;;;;;;;12.90;10.73;;;16.80;99.90;;;;;;7390524;19;20122;-68
2023/08/27 06:25:17;;;;;;;12.30;10.07;;;16.80;99.90;;;;;;7387556;19;20018;-69
2023/08/27 06:27:50;;;;;;;11.73;10.00;;;16.80;99.90;;;;;;7386761;19;20013;-70
2023/08/27 06:30:20;;;;;;;12.00;10.70;;;16.80;99.90;;;;;;7387489;19;20082;-69
2023/08/27 06:32:50;;;;;;;13.05;10.43;;;16.70;99.90;;;;;;7389827;19;20052;-68
2023/08/27 06:35:20;;;;;;;13.02;11.02;;;16.80;99.90;;;;;;7394948;19;20019;-69
2023/08/27 06:37:50;;;;;;;12.20;9.90;;;16.80;99.90;;;;;;7396528;19;20332;-70
2023/08/27 06:40:20;;;;;;;14.63;10.75;;;16.80;99.90;;;;;;7394103;19;20073;-70
2023/08/27 06:42:53;;;;;;;9.45;8.45;;;16.80;99.90;;;;;;7397212;19;20010;-69
2023/08/27 06:45:23;;;;;;;9.90;7.88;;;16.90;99.90;;;;;;7394183;19;20018;-68
2023/08/27 06:47:53;;;;;;;7.95;6.20;;;17.00;99.90;;;;;;7393524;19;20056;-68
2023/08/27 06:50:23;;;;;;;11.27;5.82;;;17.00;99.90;;;;;;7394830;19;20011;-69
2023/08/27 06:52:53;;;;;;;8.82;5.47;;;17.20;99.90;;;;;;7393499;19;20014;-68
2023/08/27 06:55:23;;;;;;;7.18;5.10;;;17.20;99.90;;;;;;7390056;19;20072;-69
2023/08/27 06:57:56;;;;;;;7.28;5.60;;;17.20;99.90;;;;;;7389633;19;20018;-69
2023/08/27 07:00:27;;;;;;;7.72;5.28;;;17.20;99.90;;;;;;7389826;19;20018;-70
2023/08/27 07:03:01;;;;;;;;;;;17.30;99.90;;;;;;7393636;19;20029;-69
2023/08/27 07:05:31;;;;;;;7.03;5.10;;;17.30;99.90;;;;;;7390259;19;20339;-69
2023/08/27 07:08:01;;;;;;;6.18;5.05;;;17.40;99.90;;;;;;7393018;19;20405;-69
2023/08/27 07:10:32;;;;;;;6.03;4.38;;;17.40;99.90;;;;;;7392729;19;20069;-69
2023/08/27 07:13:05;;;;;;;8.27;4.68;;;17.30;99.90;;;;;;7396185;19;20399;-68
2023/08/27 07:15:35;;;;;;;6.93;4.50;;;17.30;99.90;;;;;;7392538;19;20042;-69
2023/08/27 07:18:05;;;;;;;7.55;4.43;;;17.30;99.90;;;;;;7393844;19;20018;-69
2023/08/27 07:20:36;;;;;;;5.43;4.47;;;17.50;99.90;;;;;;7392692;19;20497;-71
2023/08/27 07:23:06;;;;;;;7.28;4.88;;;17.60;99.90;;;;;;7395600;19;20390;-69
2023/08/27 07:25:38;;;;;;;3.88;3.38;;;17.70;99.90;;;;;;7393599;19;20098;-69
2023/08/27 07:28:10;;;;;;;5.30;4.00;;;17.60;99.90;;;;;;7393260;19;20014;-69
2023/08/27 07:30:40;;;;;;;4.63;3.38;;;17.70;99.90;;;;;;7391045;19;20031;-70
2023/08/27 07:33:11;;;;;;;4.63;2.97;;;17.90;99.90;;;;;;7396448;19;20098;-70
2023/08/27 07:35:41;;;;;;;6.18;3.28;;;17.90;99.90;;;;;;7392177;19;20031;-69
2023/08/27 07:38:11;;;;;;;5.03;3.55;;;18.00;95.90;;;;;;7393231;19;20031;-69
2023/08/27 07:40:41;;;;;;;3.22;2.85;;;18.10;80.50;;;;;;7391871;19;20081;-68
2023/08/27 07:43:13;;;;;;;3.17;2.88;;;18.10;75.30;;;;;;7393329;19;20018;-69
2023/08/27 07:45:43;;;;;;;6.15;3.20;;;18.10;69.30;;;;;;7392068;19;20011;-68
2023/08/27 07:48:13;;;;;;;3.53;3.10;;;18.00;67.20;;;;;;7392013;19;20496;-69
2023/08/27 07:50:43;;;;;;;3.88;2.65;;;17.80;59.30;;;;;;7390261;19;20020;-69
2023/08/27 07:53:13;;;;;;;4.47;2.80;;;17.90;77.20;;;;;;7395285;19;20050;-69
2023/08/27 07:55:43;;;;;;;4.88;2.53;;;17.90;69.70;;;;;;7392470;19;20032;-68
2023/08/27 07:58:16;;;;;;;3.58;2.60;;;17.80;77.60;;;;;;7392067;19;20015;-70
2023/08/27 08:00:46;;;;;;;3.22;2.85;;;17.90;81.30;;;;;;7389663;19;20018;-69
2023/08/27 08:03:16;;;;;;;3.38;2.80;;;18.00;90.80;;;;;;7393696;19;20011;-69
2023/08/27 08:05:46;;;;;;;2.65;2.45;;;18.00;90.10;;;;;;7391122;19;20479;-70
2023/08/27 08:08:16;;;;;;;3.45;2.83;;;18.10;77.20;;;;;;7391707;19;20118;-69
2023/08/27 08:10:46;;;;;;;6.45;2.75;;;18.00;80.00;;;;;;7389694;19;20625;-69
2023/08/27 08:13:18;;;;;;;3.92;2.95;;;18.00;83.50;;;;;;7392524;19;20541;-70
2023/08/27 08:15:50;;;;;;;3.45;2.97;;;18.10;89.20;;;;;;7391467;19;20037;-70
2023/08/27 08:18:20;;;;;;;5.03;3.03;;;17.90;55.40;;;;;;7390555;19;20028;-70
2023/08/27 08:20:50;;;;;;;5.82;3.17;;;18.10;80.80;;;;;;7389581;19;20022;-69
2023/08/27 08:23:20;;;;;;;4.68;3.13;;;18.10;76.20;;;;;;7391195;19;20025;-70
2023/08/27 08:25:51;;;;;;;5.00;3.00;;;18.10;73.40;;;;;;7391175;19;20049;-71
2023/08/27 08:28:24;;;;;;;4.07;2.53;;;18.00;81.00;;;;;;7390522;19;20117;-70
2023/08/27 08:30:54;;;;;;;3.95;3.05;;;18.30;85.40;;;;;;7388767;19;20010;-70
2023/08/27 08:33:24;;;;;;;4.57;3.25;;;18.30;62.70;;;;;;7392631;19;20025;-69
2023/08/27 08:35:54;;;;;;;3.45;2.70;;;18.40;49.10;;;;;;7389747;19;20011;-69
2023/08/27 08:38:24;;;;;;;4.18;3.30;;;18.50;51.70;;;;;;7389189;19;20011;-71
2023/08/27 08:40:59;;;;;;;4.97;2.92;;;18.70;55.40;;;;;;7389367;19;20015;-69
2023/08/27 08:43:39;;;;;;;3.17;2.75;;;19.00;36.80;;;;;;7391070;19;20018;-69
2023/08/27 08:46:10;;;;;;;3.85;3.00;;;19.00;36.00;;;;;;7389675;19;20389;-70
2023/08/27 08:48:41;;;;;;;7.80;3.15;;;19.10;39.10;;;;;;7388450;19;20022;-70
2023/08/27 08:51:13;;;;;;;4.03;3.10;;;19.00;28.10;;;;;;7387480;19;20014;-70
2023/08/27 08:53:44;;;;;;;4.93;3.00;;;18.70;42.00;;;;;;7391298;19;20115;-70
2023/08/27 08:56:21;;;;;;;3.90;3.20;;;18.70;34.30;;;;;;7386506;19;20395;-70
2023/08/27 08:58:57;;;;;;;4.68;3.00;;;18.80;36.60;;;;;;7389799;19;20011;-71
2023/08/27 09:01:28;;;;;;;5.68;3.17;;;18.60;23.10;;;;;;7387539;19;20018;-70
2023/08/27 09:03:59;;;;;;;3.30;2.60;;;18.70;35.10;;;;;;7389594;19;20379;-69
2023/08/27 09:06:29;;;;;;;4.30;2.92;;;18.80;26.50;;;;;;7388470;19;20086;-70
2023/08/27 09:09:02;;;;;;;3.05;2.60;;;18.70;24.80;;;;;;7389045;19;20014;-70
2023/08/27 09:11:33;;;;;;;3.63;2.75;;;18.70;28.10;;;;;;7385797;19;20031;-71
2023/08/27 09:14:06;;;;;;;4.03;2.45;;;18.60;33.60;;;;;;7391018;19;20015;-70
2023/08/27 09:16:36;;;;;;;4.70;2.60;;;18.40;26.10;;;;;;7387157;19;20007;-69
2023/08/27 09:19:06;;;;;;;4.40;2.45;;;18.60;30.40;;;;;;7388419;19;20089;-69
2023/08/27 09:21:36;;;;;;;4.13;2.42;;;18.50;17.20;;;;;;7385791;19;20109;-70
2023/08/27 09:24:07;;;;;;;3.85;2.45;;;18.50;21.70;;;;;;7389894;19;20021;-70
2023/08/27 09:26:38;;;;;;;2.78;2.33;;;18.50;28.20;;;;;;7390063;19;20360;-71
2023/08/27 09:29:11;;;;;;;3.95;2.30;;;18.60;29.90;;;;;;7391960;19;20092;-70
2023/08/27 09:31:42;;;;;;;5.82;2.58;;;18.60;22.30;;;;;;7389944;19;20027;-70
2023/08/27 09:34:16;;;;;;;4.55;3.00;;;18.90;25.20;;;;;;7390260;19;20014;-70
2023/08/27 09:36:46;;;;;;;5.05;3.58;;;19.00;18.50;;;;;;7390674;19;20010;-70
2023/08/27 09:39:16;;;;;;;4.68;3.28;;;19.10;11.10;;;;;;7390935;19;20073;-69
2023/08/27 09:41:47;;;;;;;3.22;2.80;;;19.00;13.10;;;;;;7386050;19;20018;-69
2023/08/27 09:44:27;;;;;;;3.95;3.20;;;19.60;10.00;;;;;;7390899;19;20022;-69
2023/08/27 09:47:06;;;;;;;6.32;3.20;;;19.60;1.00;;;;;;7392352;19;20014;-70
2023/08/27 09:49:41;;;;;;;7.13;2.97;;;20.00;1.00;;;;;;7390732;19;20029;-67
2023/08/27 09:52:11;;;;;;;4.00;2.80;;;20.00;1.00;;;;;;7392508;19;20055;-67
2023/08/27 09:54:45;;;;;;;7.25;3.03;;;20.20;1.00;;;;;;7393248;19;20108;-68
2023/08/27 09:57:20;;;;;;;6.57;3.00;;;20.10;1.00;;;;;;7388449;19;20026;-68
2023/08/27 09:59:54;;;;;;;4.53;2.40;;;20.10;1.00;;;;;;7386439;19;20018;-68
2023/08/27 10:02:24;;;;;;;4.45;2.70;;;20.10;1.00;;;;;;7387480;19;20010;-68
2023/08/27 10:04:56;;;;;;;5.50;2.63;;;20.60;1.00;;;;;;7387765;19;20026;-68
2023/08/27 10:07:26;;;;;;;5.38;2.53;;;20.50;1.00;;;;;;7388268;19;20039;-68
2023/08/27 10:09:58;;;;;;;4.35;2.53;;;19.70;1.00;;;;;;7386482;19;20018;-69
2023/08/27 10:12:28;;;;;;;5.72;2.83;;;19.80;1.00;;;;;;7385546;19;20014;-68
2023/08/27 10:15:03;;;;;;;4.90;2.63;;;20.00;1.00;;;;;;7387501;19;20018;-69
2023/08/27 10:17:33;;;;;;;4.75;2.65;;;20.10;1.00;;;;;;7388010;19;20015;-69
2023/08/27 10:20:05;;;;;;;4.10;2.72;;;20.00;1.00;;;;;;7387305;19;20015;-70
2023/08/27 10:22:35;;;;;;;3.40;2.38;;;20.20;1.00;;;;;;7387528;19;20014;-70
2023/08/27 10:25:06;;;;;;;7.05;2.90;;;20.80;1.00;;;;;;7384054;19;20459;-68
2023/08/27 10:27:38;;;;;;;3.05;2.50;;;20.90;1.00;;;;;;7385885;19;20015;-69
2023/08/27 10:30:13;;;;;;;4.63;3.00;;;20.80;1.00;;;;;;7387067;19;20082;-69
2023/08/27 10:32:42;;;;;;;4.28;2.80;;;20.90;1.00;;;;;;7387044;19;20119;-70
2023/08/27 10:35:14;;;;;;;4.05;2.50;;;21.00;1.00;;;;;;7387402;19;20018;-69
2023/08/27 10:37:48;;;;;;;6.38;2.55;;;21.10;1.00;;;;;;7384996;19;20014;-69
2023/08/27 10:40:19;;;;;;;4.15;2.58;;;21.40;1.00;;;;;;7387162;19;20018;-69
2023/08/27 10:42:49;;;;;;;8.32;2.83;;;21.50;1.00;;;;;;7387494;19;20018;-69
2023/08/27 10:45:24;;;;;;;6.00;2.92;;;21.50;1.00;;;;;;7386031;19;20015;-69
2023/08/27 10:48:10;;;;;;;4.75;2.80;;;21.30;1.00;;;;;;7385573;19;20011;-68
2023/08/27 10:50:46;;;;;;;4.38;2.45;;;21.50;1.00;;;;;;7385000;19;20022;-70
2023/08/27 10:53:17;;;;;;;5.47;2.20;;;20.90;1.00;;;;;;7387711;19;20010;-70
2023/08/27 10:55:51;;;;;;;4.10;2.55;;;21.00;1.00;;;;;;7389911;19;20085;-70
2023/08/27 10:58:22;;;;;;;7.43;2.63;;;21.20;1.00;;;;;;7385835;19;20081;-70
2023/08/27 11:01:09;;;;;;;5.30;2.13;;;21.10;1.00;;;;;;7384258;19;20035;-70
2023/08/27 11:03:54;;;;;;;5.28;2.10;;;21.30;1.00;;;;;;7386172;19;20026;-70
2023/08/27 11:06:35;;;;;;;4.20;2.55;;;21.10;1.00;;;;;;7385865;19;20018;-68
2023/08/27 11:09:14;;;;;;;4.68;2.45;;;21.90;1.00;;;;;;7386339;19;20014;-69
2023/08/27 11:11:53;;;;;;;3.83;2.20;;;21.70;1.00;;;;;;7384399;19;20025;-71
2023/08/27 11:14:25;;;;;;;4.10;2.65;;;21.70;1.00;;;;;;7388594;19;20018;-70
2023/08/27 11:17:03;;;;;;;4.85;2.70;;;21.70;1.00;;;;;;7386527;19;20035;-69
2023/08/27 11:19:35;;;;;;;4.97;2.30;;;21.20;1.00;;;;;;7389412;19;20035;-70
2023/08/27 11:22:13;;;;;;;4.32;2.25;;;21.30;1.00;;;;;;7392715;19;20002;-70
2023/08/27 11:24:45;;;;;;;4.55;2.45;;;21.10;1.00;;;;;;7396605;19;20034;-69
2023/08/27 11:27:17;;;;;;;4.95;2.03;;;21.00;1.00;;;;;;7391893;19;20140;-69
2023/08/27 11:29:50;;;;;;;5.75;2.55;;;21.00;1.00;;;;;;7391177;19;20034;-69
2023/08/27 11:32:23;;;;;;;4.97;2.72;;;21.00;1.00;;;;;;7391625;19;20462;-68
2023/08/27 11:34:55;;;;;;;5.50;2.55;;;20.80;1.00;;;;;;7395227;19;20003;-68
2023/08/27 11:37:34;;;;;;;2.90;2.30;;;21.10;1.00;;;;;;7393849;19;20019;-69
2023/08/27 11:40:04;;;;;;;5.88;2.40;;;21.00;1.00;;;;;;7395839;19;20019;-68
2023/08/27 11:42:34;;;;;;;3.15;2.10;;;21.50;1.00;;;;;;7397031;19;20541;-68
2023/08/27 11:45:04;;;;;;;6.63;2.13;;;21.60;1.00;;;;;;7396469;19;20025;-69
2023/08/27 11:47:43;;;;;;;7.38;2.50;;;21.70;1.00;;;;;;7394845;19;20019;-70
2023/08/27 11:50:14;;;;;;;3.78;2.10;;;21.00;1.00;;;;;;7394004;19;20010;-69
2023/08/27 11:52:44;;;;;;;3.47;2.20;;;21.60;1.00;;;;;;7395917;19;20047;-70
2023/08/27 11:55:20;;;;;;;4.65;1.80;;;21.90;1.00;;;;;;7395188;19;20025;-70
2023/08/27 11:57:54;;;;;;;3.67;2.13;;;22.00;1.00;;;;;;7392759;19;20031;-69
2023/08/27 12:00:25;;;;;;;3.33;1.92;;;21.80;1.00;;;;;;7395245;19;20024;-69
2023/08/27 12:02:58;;;;;;;6.20;2.55;;;21.40;1.00;;;;;;7391613;19;20014;-69
2023/08/27 12:05:29;;;;;;;6.93;2.50;;;21.70;1.00;;;;;;7392209;19;20010;-70
2023/08/27 12:07:59;;;;;;;5.13;2.05;;;21.80;1.00;;;;;;7390691;19;20499;-70
2023/08/27 12:10:31;;;;;;;4.88;2.53;;;21.90;1.00;;;;;;7395092;19;20021;-70
2023/08/27 12:13:02;;;;;;;6.63;2.40;;;21.80;1.00;;;;;;7391952;19;20039;-68
2023/08/27 12:15:35;;;;;;;4.85;2.35;;;21.70;1.00;;;;;;7390292;19;20416;-70
2023/08/27 12:18:11;;;;;;;2.83;2.10;;;21.60;1.00;;;;;;7391523;19;20546;-69
2023/08/27 12:20:41;;;;;;;5.82;2.58;;;21.90;1.00;;;;;;7388914;19;20017;-70
2023/08/27 12:23:12;;;;;;;5.85;2.08;;;21.90;1.00;;;;;;7393682;19;20017;-70
2023/08/27 12:25:49;;;;;;;3.67;2.30;;;21.60;1.00;;;;;;7394123;19;20010;-71
2023/08/27 12:28:20;;;;;;;3.50;1.85;;;21.50;1.00;;;;;;7392389;19;20006;-70
2023/08/27 12:30:57;;;;;;;3.78;2.17;;;21.70;1.00;;;;;;7393518;19;20014;-68
2023/08/27 12:33:41;;;;;;;3.78;2.08;;;21.60;1.00;;;;;;7393540;19;20010;-70
2023/08/27 12:36:11;;;;;;;5.40;2.20;;;21.50;1.00;;;;;;7394059;19;20031;-69
2023/08/27 12:38:41;;;;;;;6.50;2.22;;;21.60;1.00;;;;;;7392541;19;20105;-69
2023/08/27 12:41:11;;;;;;;6.25;2.15;;;21.70;1.00;;;;;;7393120;19;20093;-69
2023/08/27 12:43:43;;;;;;;2.40;1.60;;;21.60;1.00;;;;;;7393709;19;20028;-69
2023/08/27 12:46:13;;;;;;;4.07;2.13;;;21.60;1.00;;;;;;7394541;19;20010;-69
2023/08/27 12:48:47;;;;;;;6.53;2.10;;;21.40;1.00;;;;;;7393504;19;20388;-70
2023/08/27 12:51:17;;;;;;;3.95;2.10;;;21.60;1.00;;;;;;7388118;19;20015;-69
2023/08/27 12:53:47;;;;;;;3.53;2.00;;;21.60;1.00;;;;;;7390911;19;20023;-69
2023/08/27 12:56:17;;;;;;;3.78;2.22;;;21.90;1.00;;;;;;7394842;19;20090;-70
2023/08/27 12:58:47;;;;;;;4.63;2.25;;;22.00;1.00;;;;;;7390661;19;20021;-70
2023/08/27 13:01:17;;;;;;;4.60;1.95;;;21.90;1.00;;;;;;7389326;19;20028;-69
2023/08/27 13:03:50;;;;;;;5.18;2.00;;;22.00;1.00;;;;;;7392039;19;20018;-69
2023/08/27 13:06:20;;;;;;;6.40;2.58;;;21.90;1.00;;;;;;7389441;19;20048;-71
2023/08/27 13:08:50;;;;;;;3.33;2.28;;;21.90;1.00;;;;;;7390282;19;20011;-70
2023/08/27 13:11:21;;;;;;;5.10;2.25;;;22.20;1.00;;;;;;7392733;19;20495;-69